DAUU

Details ICAO DAUU (OGX)
Name OUARGLA
Region Algeria
Timezone Africa/Algiers (UTC+1.0)
Plans Departing 5
Arriving 12
Stats Elevation 492 ft / 150 m (AMSL)
Location 31.917454° 5.412895°
Runways 2
Magnetic Variation 1.300° E
Sunrise 2017-12-11 06:30:00 UTC / 2017-12-11 07:30:00 Local
Sunset 2017-12-11 16:36:07 UTC / 2017-12-11 17:36:07 Local
Advertisement - Login to hide

Runways

ID Width Length Bearing (true) Bearing (mag) Surface Threshold Offset Overrun Length
02 148 ft / 45 m 9,874 ft / 3,010 m 15.92° 14.62° Asphalt 0 ft / 0 m 160 ft / 49 m
18 148 ft / 45 m 10,207 ft / 3,111 m 178.96° 177.66° Asphalt 350 ft / 107 m 0 ft / 0 m
20 148 ft / 45 m 9,874 ft / 3,010 m 195.93° 194.63° Asphalt 0 ft / 0 m 0 ft / 0 m
36 148 ft / 45 m 10,207 ft / 3,111 m 358.96° 357.66° Asphalt 0 ft / 0 m 0 ft / 0 m

Map

Weather


0- 5 10 15 20 25 30 35+ Temperature / ° C

Clouds and Precipitation
Forecast for 2017-12-11 06:00 UTC. Updated an hour ago

Ground ~20,000 ft ~40,000 ft Winds

METAR

DAUU 110400Z 16010KT CAVOK 07/M03 Q1017

TAF

Not found
Warning: Do not use this data for real-world aviation or navigation. No guarantee of current accuracy is given.